Time;durP1;ratioP1;P1;durP2;ratioP2;P2;SDS_P1;SDS_P2;PMS_P1;PMS_P2;Temp;Humidity;BMP_temperature;BMP_pressure;BME280_temperature;BME280_humidity;BME280_pressure;Samples;Min_cycle;Max_cycle;Signal;HPM_P1;HPM_P2
2023/05/27 00:02:21;;;;;;;5.03;3.50;;;19.20;99.90;;;;;;5074829;28;20029;-80
2023/05/27 00:04:47;;;;;;;6.72;3.72;;;19.20;99.90;;;;;;5074704;28;20032;-80
2023/05/27 00:07:12;;;;;;;7.82;3.60;;;19.30;99.90;;;;;;5074939;28;20024;-79
2023/05/27 00:09:38;;;;;;;6.50;3.80;;;19.20;99.90;;;;;;5074945;28;20025;-80
2023/05/27 00:12:04;;;;;;;7.28;3.83;;;19.20;99.90;;;;;;5074676;28;20024;-80
2023/05/27 00:14:30;;;;;;;11.75;4.22;;;19.10;99.90;;;;;;5074773;28;20032;-79
2023/05/27 00:16:56;;;;;;;7.07;4.18;;;19.10;99.90;;;;;;5074915;28;20031;-79
2023/05/27 00:19:23;;;;;;;8.55;3.72;;;18.90;99.90;;;;;;5074942;28;20028;-80
2023/05/27 00:21:52;;;;;;;8.43;4.30;;;19.00;99.90;;;;;;5074606;28;20028;-79
2023/05/27 00:24:18;;;;;;;7.38;4.32;;;19.00;99.90;;;;;;5074628;28;20470;-80
2023/05/27 00:26:44;;;;;;;5.60;3.42;;;18.90;99.90;;;;;;5074163;28;20394;-79
2023/05/27 00:29:09;;;;;;;9.38;4.05;;;18.90;99.90;;;;;;5074582;28;20020;-80
2023/05/27 00:31:35;;;;;;;9.73;4.97;;;18.90;99.90;;;;;;5074849;28;20059;-79
2023/05/27 00:34:01;;;;;;;6.03;3.83;;;18.80;99.90;;;;;;5074419;28;20028;-79
2023/05/27 00:36:26;;;;;;;8.05;3.85;;;18.80;99.90;;;;;;5074363;28;20031;-80
2023/05/27 00:38:52;;;;;;;5.40;3.38;;;18.80;99.90;;;;;;5074250;28;20031;-79
2023/05/27 00:41:18;;;;;;;5.38;3.22;;;18.80;99.90;;;;;;5074783;28;20031;-79
2023/05/27 00:43:44;;;;;;;9.05;4.22;;;19.00;99.90;;;;;;5074325;28;20032;-79
2023/05/27 00:46:10;;;;;;;6.22;3.58;;;19.10;99.90;;;;;;5074255;28;20095;-80
2023/05/27 00:48:36;;;;;;;8.82;3.42;;;19.10;99.90;;;;;;5074258;28;20109;-80
2023/05/27 00:51:02;;;;;;;6.78;4.07;;;19.00;99.90;;;;;;5074225;28;20099;-79
2023/05/27 00:53:29;;;;;;;7.22;4.85;;;19.00;99.90;;;;;;5074046;28;20063;-79
2023/05/27 00:55:59;;;;;;;13.07;5.75;;;18.80;99.90;;;;;;5073793;28;20566;-80
2023/05/27 00:58:27;;;;;;;9.95;5.38;;;18.70;99.90;;;;;;5074122;28;20115;-79
2023/05/27 01:00:52;;;;;;;7.78;5.20;;;18.70;99.90;;;;;;5073732;28;20107;-80
2023/05/27 01:03:20;;;;;;;11.70;5.45;;;18.60;99.90;;;;;;5073532;28;20119;-80
2023/05/27 01:05:45;;;;;;;9.65;6.18;;;18.70;99.90;;;;;;5073865;28;20060;-80
2023/05/27 01:08:47;;;;;;;15.95;5.32;;;18.70;99.90;;;;;;5073770;28;20056;-80
2023/05/27 01:11:15;;;;;;;7.22;4.65;;;18.50;99.90;;;;;;5051400;28;20395;-80
2023/05/27 01:13:48;;;;;;;7.65;5.05;;;18.50;99.90;;;;;;5069262;28;20038;-79
2023/05/27 01:16:17;;;;;;;8.40;4.47;;;18.20;99.90;;;;;;5073712;28;20036;-79
2023/05/27 01:18:45;;;;;;;8.55;4.80;;;18.40;99.90;;;;;;5073198;28;20040;-80
2023/05/27 01:21:16;;;;;;;8.60;4.28;;;18.40;99.90;;;;;;5073487;28;20028;-79
2023/05/27 01:23:44;;;;;;;9.15;5.07;;;18.40;99.90;;;;;;5073113;28;20465;-79
2023/05/27 01:26:10;;;;;;;8.70;5.38;;;18.50;99.90;;;;;;5073388;28;20036;-79
2023/05/27 01:28:36;;;;;;;11.15;5.38;;;18.50;99.90;;;;;;5073454;28;20036;-79
2023/05/27 01:31:26;;;;;;;5.85;3.90;;;18.50;99.90;;;;;;5073228;28;20029;-80
2023/05/27 01:34:00;;;;;;;11.25;4.78;;;18.40;99.90;;;;;;5072951;28;20070;-80
2023/05/27 01:36:30;;;;;;;10.25;4.70;;;18.40;99.90;;;;;;5073006;28;20056;-80
2023/05/27 01:38:57;;;;;;;9.48;4.97;;;18.30;99.90;;;;;;5072990;28;20024;-79
2023/05/27 01:41:24;;;;;;;7.28;4.97;;;18.30;99.90;;;;;;5073374;28;20040;-79
2023/05/27 01:43:51;;;;;;;6.93;4.72;;;18.50;99.90;;;;;;5072964;28;20032;-80
2023/05/27 01:46:17;;;;;;;7.63;4.80;;;18.60;99.90;;;;;;5072895;28;20031;-80
2023/05/27 01:48:43;;;;;;;8.27;5.15;;;18.50;99.90;;;;;;5073048;28;20021;-79
2023/05/27 01:51:09;;;;;;;7.85;5.25;;;18.40;99.90;;;;;;5071919;28;20477;-79
2023/05/27 01:53:34;;;;;;;8.63;6.15;;;18.30;99.90;;;;;;5072851;28;20382;-80
2023/05/27 01:56:00;;;;;;;10.48;5.53;;;18.30;99.90;;;;;;5072824;28;20051;-79
2023/05/27 01:58:26;;;;;;;7.50;4.90;;;18.20;99.90;;;;;;5072588;28;20024;-79
2023/05/27 02:00:51;;;;;;;9.45;5.03;;;18.10;99.90;;;;;;5072983;28;20104;-79
2023/05/27 02:03:17;;;;;;;6.43;4.70;;;17.90;99.90;;;;;;5073014;28;20040;-79
2023/05/27 02:05:44;;;;;;;7.30;4.28;;;17.90;99.90;;;;;;5072789;28;20482;-79
2023/05/27 02:08:10;;;;;;;7.72;5.07;;;18.00;99.90;;;;;;5072774;28;20028;-80
2023/05/27 02:10:35;;;;;;;7.15;4.95;;;18.10;99.90;;;;;;5072829;28;20116;-79
2023/05/27 02:13:01;;;;;;;8.82;4.25;;;18.20;99.90;;;;;;5072756;28;20068;-79
2023/05/27 02:15:28;;;;;;;12.00;4.07;;;18.40;99.90;;;;;;5072858;28;20091;-79
2023/05/27 02:17:55;;;;;;;6.57;4.35;;;18.30;99.90;;;;;;5072939;28;20078;-80
2023/05/27 02:20:22;;;;;;;12.30;5.18;;;18.30;99.90;;;;;;5072780;28;20172;-79
2023/05/27 02:22:50;;;;;;;7.18;4.85;;;18.40;99.90;;;;;;5072605;28;20107;-79
2023/05/27 02:25:16;;;;;;;6.95;4.93;;;18.40;99.90;;;;;;5072423;28;20025;-80
2023/05/27 02:27:43;;;;;;;6.90;4.30;;;18.30;99.90;;;;;;5072635;28;20040;-79
2023/05/27 02:30:10;;;;;;;6.78;4.40;;;18.30;99.90;;;;;;5072668;28;20028;-79
2023/05/27 02:32:35;;;;;;;10.30;4.25;;;18.40;99.90;;;;;;5072585;28;20021;-79
2023/05/27 02:35:02;;;;;;;10.45;5.00;;;18.40;99.90;;;;;;5072662;28;20024;-80
2023/05/27 02:37:28;;;;;;;8.10;4.30;;;18.50;99.90;;;;;;5072836;28;20104;-79
2023/05/27 02:39:55;;;;;;;8.55;5.20;;;18.60;99.90;;;;;;5072514;28;20534;-80
2023/05/27 02:42:20;;;;;;;8.10;4.65;;;18.60;99.90;;;;;;5072528;28;20045;-79
2023/05/27 02:44:46;;;;;;;5.85;3.75;;;18.60;99.90;;;;;;5072446;28;20099;-79
2023/05/27 02:47:12;;;;;;;6.82;4.45;;;18.60;99.90;;;;;;5072774;28;20048;-79
2023/05/27 02:49:37;;;;;;;6.90;4.40;;;18.50;99.90;;;;;;5072700;28;20439;-80
2023/05/27 02:52:03;;;;;;;9.90;4.72;;;18.50;99.90;;;;;;5072611;28;20017;-79
2023/05/27 02:54:29;;;;;;;8.15;4.35;;;18.40;99.90;;;;;;5072290;28;20466;-79
2023/05/27 02:56:55;;;;;;;6.22;4.20;;;18.30;99.90;;;;;;5071903;28;20063;-79
2023/05/27 02:59:20;;;;;;;6.60;4.47;;;18.40;99.90;;;;;;5072435;28;20381;-79
2023/05/27 03:01:46;;;;;;;6.07;4.00;;;18.30;99.90;;;;;;5058567;28;20029;-79
2023/05/27 03:04:12;;;;;;;6.57;4.43;;;18.40;99.90;;;;;;5050370;28;20052;-78
2023/05/27 03:06:37;;;;;;;8.40;5.80;;;18.30;99.90;;;;;;5049078;28;20036;-78
2023/05/27 03:09:04;;;;;;;7.97;5.70;;;18.30;99.90;;;;;;5049698;28;20372;-78
2023/05/27 03:11:29;;;;;;;9.38;5.43;;;18.30;99.90;;;;;;5049758;28;20029;-78
2023/05/27 03:13:55;;;;;;;9.82;5.20;;;18.20;99.90;;;;;;5049744;28;20041;-78
2023/05/27 03:16:22;;;;;;;11.38;4.85;;;17.90;99.90;;;;;;5049436;28;20033;-78
2023/05/27 03:18:48;;;;;;;9.02;5.10;;;18.00;99.90;;;;;;5062930;28;20073;-78
2023/05/27 03:21:14;;;;;;;8.55;5.32;;;18.00;99.90;;;;;;5067469;28;20158;-78
2023/05/27 03:23:40;;;;;;;9.07;5.75;;;18.10;99.90;;;;;;5068799;28;20024;-78
2023/05/27 03:26:05;;;;;;;8.30;5.78;;;18.10;99.90;;;;;;5070385;28;20021;-78
2023/05/27 03:28:31;;;;;;;9.35;5.85;;;17.90;99.90;;;;;;5067899;28;20055;-78
2023/05/27 03:30:57;;;;;;;10.40;5.95;;;17.90;99.90;;;;;;5066605;28;20505;-78
2023/05/27 03:33:23;;;;;;;12.38;6.18;;;17.90;99.90;;;;;;5069420;28;20028;-78
2023/05/27 03:35:49;;;;;;;10.35;6.15;;;18.00;99.90;;;;;;5070414;28;20210;-78
2023/05/27 03:38:15;;;;;;;10.77;6.38;;;17.90;99.90;;;;;;5070538;28;20036;-78
2023/05/27 03:40:40;;;;;;;7.43;5.28;;;17.80;99.90;;;;;;5070381;28;20198;-78
2023/05/27 03:43:06;;;;;;;11.55;5.88;;;17.80;99.90;;;;;;5070281;28;20029;-78
2023/05/27 03:45:32;;;;;;;10.15;5.57;;;17.70;99.90;;;;;;5070484;28;20082;-78
2023/05/27 03:47:58;;;;;;;7.80;6.00;;;17.50;99.90;;;;;;5070112;28;20032;-78
2023/05/27 03:50:23;;;;;;;9.73;6.57;;;17.60;99.90;;;;;;5070067;28;20032;-78
2023/05/27 03:52:49;;;;;;;10.43;6.53;;;17.70;99.90;;;;;;5069949;28;20017;-78
2023/05/27 03:55:16;;;;;;;8.90;6.28;;;17.70;99.90;;;;;;5069350;28;20079;-78
2023/05/27 03:57:42;;;;;;;9.13;6.82;;;17.70;99.90;;;;;;5069088;28;20027;-78
2023/05/27 04:00:11;;;;;;;10.05;5.90;;;17.70;99.90;;;;;;5066404;28;20037;-79
2023/05/27 04:02:37;;;;;;;12.98;5.95;;;17.60;99.90;;;;;;5066231;28;20111;-78
2023/05/27 04:05:03;;;;;;;9.38;6.32;;;17.60;99.90;;;;;;5065887;28;20082;-78
2023/05/27 04:07:28;;;;;;;9.05;6.30;;;17.80;99.90;;;;;;5065937;28;20103;-78
2023/05/27 04:09:55;;;;;;;9.50;5.78;;;17.90;99.90;;;;;;5066181;28;20162;-78
2023/05/27 04:12:20;;;;;;;9.77;6.07;;;18.00;99.90;;;;;;5066397;28;20024;-78
2023/05/27 04:14:46;;;;;;;9.15;6.13;;;18.10;99.90;;;;;;5065491;28;20096;-78
2023/05/27 04:17:13;;;;;;;10.80;5.90;;;18.00;99.90;;;;;;5066291;28;20028;-78
2023/05/27 04:19:39;;;;;;;8.60;6.60;;;18.00;99.90;;;;;;5066165;28;20032;-78
2023/05/27 04:22:05;;;;;;;11.65;6.85;;;18.00;99.90;;;;;;5066221;28;20363;-79
2023/05/27 04:24:30;;;;;;;8.65;6.25;;;18.00;99.90;;;;;;5066115;28;20582;-79
2023/05/27 04:26:56;;;;;;;7.82;5.82;;;18.10;99.90;;;;;;5066270;28;20040;-78
2023/05/27 04:29:25;;;;;;;10.48;6.35;;;18.10;99.90;;;;;;5066482;28;20025;-78
2023/05/27 04:31:50;;;;;;;8.75;5.38;;;18.20;99.90;;;;;;5065670;28;20082;-78
2023/05/27 04:34:16;;;;;;;11.45;6.47;;;18.20;99.90;;;;;;5066076;28;20485;-78
2023/05/27 04:36:43;;;;;;;14.38;6.55;;;18.20;99.90;;;;;;5065869;28;20552;-78
2023/05/27 04:39:11;;;;;;;10.05;5.68;;;18.30;99.90;;;;;;5066091;28;20029;-78
2023/05/27 04:41:39;;;;;;;11.65;5.25;;;18.30;99.90;;;;;;5065697;28;20025;-78
2023/05/27 04:44:05;;;;;;;11.10;6.13;;;18.40;99.90;;;;;;5065337;28;20653;-78
2023/05/27 04:46:31;;;;;;;8.50;5.70;;;18.40;99.90;;;;;;5065107;28;20028;-78
2023/05/27 04:48:56;;;;;;;7.30;5.00;;;18.40;99.90;;;;;;5065598;28;20027;-78
2023/05/27 04:51:22;;;;;;;9.30;5.70;;;18.50;99.90;;;;;;5065324;28;20119;-78
2023/05/27 04:53:48;;;;;;;8.23;4.90;;;18.50;99.90;;;;;;5065693;28;20020;-78
2023/05/27 04:56:16;;;;;;;12.50;5.38;;;18.40;99.90;;;;;;5065530;28;20052;-78
2023/05/27 04:58:43;;;;;;;7.78;6.13;;;18.40;99.90;;;;;;5065663;28;20036;-78
2023/05/27 05:01:17;;;;;;;8.20;5.30;;;18.40;99.90;;;;;;5065693;28;20025;-78
2023/05/27 05:06:43;;;;;;;8.90;4.35;;;18.50;99.90;;;;;;5041990;28;20028;-78
2023/05/27 05:09:09;;;;;;;7.63;5.38;;;18.50;99.90;;;;;;5065378;28;20028;-78
2023/05/27 05:11:34;;;;;;;6.95;4.70;;;18.50;99.90;;;;;;5065933;28;20116;-78
2023/05/27 05:14:00;;;;;;;8.55;5.20;;;18.50;99.90;;;;;;5065249;28;20029;-78
2023/05/27 05:16:26;;;;;;;7.85;4.63;;;18.50;99.90;;;;;;5065571;28;20391;-78
2023/05/27 05:18:51;;;;;;;11.35;5.38;;;18.60;99.90;;;;;;5065065;28;20024;-79
2023/05/27 05:21:17;;;;;;;11.52;5.75;;;18.70;99.90;;;;;;5065137;28;20032;-78
2023/05/27 05:23:43;;;;;;;9.43;5.22;;;18.80;99.90;;;;;;5064556;28;20033;-78
2023/05/27 05:26:08;;;;;;;8.75;6.10;;;18.80;99.90;;;;;;5064023;28;20483;-78
2023/05/27 05:28:34;;;;;;;7.97;5.70;;;18.90;99.90;;;;;;5064514;28;20135;-78
2023/05/27 05:31:01;;;;;;;7.78;5.85;;;18.90;99.90;;;;;;5064940;28;20036;-78
2023/05/27 05:33:26;;;;;;;6.55;4.78;;;18.90;99.90;;;;;;5064769;28;20028;-78
2023/05/27 05:35:52;;;;;;;12.02;5.85;;;19.10;99.90;;;;;;5064611;28;20032;-78
2023/05/27 05:38:18;;;;;;;7.47;4.13;;;19.10;99.90;;;;;;5064766;28;20790;-79
2023/05/27 05:40:48;;;;;;;9.27;5.45;;;19.20;99.90;;;;;;5065032;28;20033;-79
2023/05/27 05:43:14;;;;;;;9.77;5.53;;;19.10;99.90;;;;;;5063937;28;20384;-78
2023/05/27 05:45:40;;;;;;;8.93;5.57;;;19.20;99.90;;;;;;5064470;28;20031;-78
2023/05/27 05:48:05;;;;;;;10.40;6.07;;;19.10;99.90;;;;;;5064729;28;20029;-78
2023/05/27 05:50:32;;;;;;;8.52;5.68;;;18.90;99.90;;;;;;5065005;28;20037;-78
2023/05/27 05:52:58;;;;;;;9.88;6.68;;;18.90;99.90;;;;;;5064619;28;20024;-79
2023/05/27 05:55:23;;;;;;;7.88;6.65;;;18.90;99.90;;;;;;5064113;28;20567;-79
2023/05/27 05:57:49;;;;;;;12.85;7.00;;;19.10;99.90;;;;;;5065028;28;20660;-78
2023/05/27 06:00:15;;;;;;;10.40;6.15;;;19.20;99.90;;;;;;5064375;28;20090;-79
2023/05/27 06:02:41;;;;;;;9.60;6.65;;;19.30;99.90;;;;;;5063770;28;20436;-78
2023/05/27 06:05:07;;;;;;;10.98;6.75;;;19.30;99.90;;;;;;5064677;28;20082;-79
2023/05/27 06:07:33;;;;;;;9.45;6.13;;;19.30;99.90;;;;;;5064781;28;20107;-78
2023/05/27 06:09:59;;;;;;;8.98;6.60;;;19.30;99.90;;;;;;5064841;28;20439;-79
2023/05/27 06:12:25;;;;;;;8.40;5.63;;;19.30;99.90;;;;;;5063956;28;20028;-79
2023/05/27 06:14:50;;;;;;;9.50;5.95;;;19.40;99.90;;;;;;5064063;28;20032;-79
2023/05/27 06:17:17;;;;;;;9.90;6.40;;;19.50;99.90;;;;;;5064286;28;20090;-78
2023/05/27 06:19:42;;;;;;;12.95;6.70;;;19.50;99.90;;;;;;5064804;28;20080;-78
2023/05/27 06:22:08;;;;;;;9.43;5.80;;;19.50;99.90;;;;;;5064266;28;20086;-78
2023/05/27 06:24:34;;;;;;;13.57;6.40;;;19.50;99.90;;;;;;5064075;28;20156;-78
2023/05/27 06:27:00;;;;;;;9.40;6.20;;;19.40;99.90;;;;;;5063864;28;20682;-79
2023/05/27 06:29:26;;;;;;;9.52;6.40;;;19.50;99.90;;;;;;5065030;28;20123;-79
2023/05/27 06:31:52;;;;;;;11.80;6.45;;;19.50;99.90;;;;;;5066057;28;20117;-78
2023/05/27 06:34:18;;;;;;;10.43;6.68;;;19.60;99.90;;;;;;5067309;28;20078;-79
2023/05/27 06:36:43;;;;;;;13.80;6.68;;;19.60;99.90;;;;;;5068452;28;20028;-78
2023/05/27 06:39:09;;;;;;;8.60;5.20;;;19.70;99.90;;;;;;5071186;28;20082;-79
2023/05/27 06:41:35;;;;;;;9.52;5.72;;;19.80;99.90;;;;;;5068599;28;20107;-79
2023/05/27 06:44:00;;;;;;;8.32;5.15;;;19.70;99.90;;;;;;5068223;28;20639;-79
2023/05/27 06:46:26;;;;;;;7.60;5.68;;;19.70;99.90;;;;;;5069955;28;20024;-79
2023/05/27 06:48:52;;;;;;;9.40;6.03;;;19.90;99.90;;;;;;5069335;28;20028;-78
2023/05/27 06:51:18;;;;;;;9.68;5.57;;;20.10;99.90;;;;;;5071070;28;20081;-79
2023/05/27 06:53:44;;;;;;;9.98;5.78;;;20.20;99.90;;;;;;5070982;28;20029;-79
2023/05/27 06:56:09;;;;;;;9.05;5.53;;;20.30;99.90;;;;;;5070584;28;20066;-79
2023/05/27 06:58:35;;;;;;;9.25;5.97;;;20.50;99.90;;;;;;5070883;28;20060;-79
2023/05/27 07:01:01;;;;;;;10.15;6.47;;;20.40;99.90;;;;;;5070956;28;20037;-79
2023/05/27 07:03:26;;;;;;;9.07;6.18;;;20.70;99.90;;;;;;5070800;28;20458;-79
2023/05/27 07:05:52;;;;;;;10.13;5.63;;;21.00;99.90;;;;;;5070904;28;20028;-79
2023/05/27 07:08:17;;;;;;;11.23;5.97;;;21.00;99.90;;;;;;5070563;28;20025;-79
2023/05/27 07:10:43;;;;;;;9.65;5.20;;;21.20;99.90;;;;;;5070448;28;20408;-79
2023/05/27 07:13:09;;;;;;;8.70;5.00;;;21.30;99.90;;;;;;5068551;28;20474;-79
2023/05/27 07:15:34;;;;;;;10.10;5.47;;;21.50;99.90;;;;;;5067326;28;20052;-79
2023/05/27 07:18:00;;;;;;;7.05;5.28;;;21.50;99.90;;;;;;5067328;28;20032;-79
2023/05/27 07:20:26;;;;;;;11.90;5.30;;;21.80;99.90;;;;;;5067649;28;20079;-79
2023/05/27 07:22:52;;;;;;;8.02;5.07;;;22.20;99.90;;;;;;5067125;28;20032;-79
2023/05/27 07:25:17;;;;;;;8.98;5.30;;;22.70;99.90;;;;;;5066759;28;20032;-79
2023/05/27 07:27:43;;;;;;;7.75;5.22;;;23.40;99.90;;;;;;5067166;28;20111;-79
2023/05/27 07:30:09;;;;;;;7.85;4.88;;;23.90;99.90;;;;;;5067213;28;20029;-79
2023/05/27 07:32:35;;;;;;;10.60;5.40;;;24.30;99.50;;;;;;5069423;28;20180;-79
2023/05/27 07:35:01;;;;;;;8.45;5.70;;;23.90;99.70;;;;;;5070110;28;20032;-79
2023/05/27 07:37:28;;;;;;;8.90;4.97;;;24.50;99.30;;;;;;5069993;28;20036;-79
2023/05/27 07:39:53;;;;;;;8.18;4.97;;;26.30;98.20;;;;;;5069691;28;20083;-79
2023/05/27 07:42:19;;;;;;;9.77;5.18;;;27.10;97.20;;;;;;5069922;28;20130;-79
2023/05/27 07:44:45;;;;;;;6.03;4.55;;;27.20;96.90;;;;;;5069871;28;20043;-79
2023/05/27 07:47:10;;;;;;;8.35;4.03;;;27.30;96.10;;;;;;5069981;28;20056;-79
2023/05/27 07:49:36;;;;;;;9.25;4.50;;;27.20;96.00;;;;;;5068809;28;20079;-79
2023/05/27 07:52:02;;;;;;;9.75;5.05;;;26.80;96.50;;;;;;5069869;28;20214;-79
2023/05/27 07:54:27;;;;;;;7.07;4.10;;;26.40;95.80;;;;;;5069695;28;20039;-79
2023/05/27 07:56:53;;;;;;;11.18;5.10;;;26.10;96.40;;;;;;5069560;28;20052;-79
2023/05/27 07:59:19;;;;;;;8.27;4.60;;;24.90;97.60;;;;;;5070279;28;20036;-79
2023/05/27 08:01:45;;;;;;;6.13;4.00;;;24.20;98.30;;;;;;5069882;28;20037;-79
2023/05/27 08:04:10;;;;;;;8.88;5.30;;;24.00;99.90;;;;;;5069732;28;20120;-79
2023/05/27 08:06:36;;;;;;;5.95;3.78;;;24.60;99.20;;;;;;5069741;28;20021;-79
2023/05/27 08:09:03;;;;;;;8.25;4.50;;;23.90;98.80;;;;;;5069598;28;20066;-79
2023/05/27 08:11:29;;;;;;;7.35;4.50;;;23.40;99.90;;;;;;5069995;28;20025;-79
2023/05/27 08:13:55;;;;;;;6.07;4.20;;;23.50;99.90;;;;;;5069470;28;20035;-79
2023/05/27 08:16:21;;;;;;;6.13;4.05;;;23.60;99.90;;;;;;5069476;28;20028;-79
2023/05/27 08:18:46;;;;;;;6.70;3.90;;;23.60;99.90;;;;;;5069415;28;20464;-79
2023/05/27 08:21:12;;;;;;;6.03;3.90;;;24.10;99.90;;;;;;5069514;28;20464;-79
2023/05/27 08:23:38;;;;;;;5.43;3.70;;;23.90;99.80;;;;;;5068823;28;20028;-79
2023/05/27 08:26:04;;;;;;;4.95;3.45;;;23.60;99.90;;;;;;5069087;28;20021;-79
2023/05/27 08:28:29;;;;;;;5.85;3.15;;;23.70;99.90;;;;;;5069346;28;20237;-79
2023/05/27 08:30:55;;;;;;;6.30;3.72;;;23.50;99.60;;;;;;5069342;28;20029;-79
2023/05/27 08:33:23;;;;;;;6.47;3.70;;;23.40;99.10;;;;;;5069425;28;20029;-79
2023/05/27 08:35:48;;;;;;;6.50;3.42;;;23.50;99.30;;;;;;5069082;28;20186;-79
2023/05/27 08:38:14;;;;;;;6.47;3.53;;;23.70;99.40;;;;;;5068985;28;20555;-79
2023/05/27 08:40:40;;;;;;;5.75;2.80;;;23.70;99.30;;;;;;5068885;28;20033;-79
2023/05/27 08:43:06;;;;;;;6.95;3.38;;;24.00;98.70;;;;;;5069228;28;20390;-79
2023/05/27 08:45:33;;;;;;;6.63;3.20;;;23.80;99.20;;;;;;5068346;28;20074;-79
2023/05/27 08:48:00;;;;;;;5.57;3.67;;;23.80;99.90;;;;;;5068868;28;20029;-79
2023/05/27 08:50:25;;;;;;;5.57;2.78;;;24.00;99.60;;;;;;5068754;28;20032;-79
2023/05/27 08:52:55;;;;;;;5.07;2.70;;;23.70;99.10;;;;;;5068481;28;20383;-79
2023/05/27 08:55:22;;;;;;;4.93;3.00;;;23.80;99.40;;;;;;5068499;28;20178;-79
2023/05/27 08:57:56;;;;;;;6.50;3.13;;;24.00;98.90;;;;;;5068721;28;20034;-79
2023/05/27 09:00:21;;;;;;;;;;;24.40;98.80;;;;;;5068646;28;20095;-79
2023/05/27 09:02:48;;;;;;;7.15;3.05;;;24.40;98.70;;;;;;5049285;28;20467;-80
2023/05/27 09:05:14;;;;;;;5.40;2.67;;;24.50;98.90;;;;;;5049206;28;20029;-80
2023/05/27 09:07:41;;;;;;;4.65;2.50;;;24.30;97.90;;;;;;5049382;28;20053;-81
2023/05/27 09:10:07;;;;;;;4.95;3.45;;;24.50;98.00;;;;;;5049131;28;20029;-80
2023/05/27 09:12:34;;;;;;;6.47;3.50;;;24.60;97.90;;;;;;5049318;28;20116;-80
2023/05/27 09:15:00;;;;;;;5.38;3.63;;;24.70;97.80;;;;;;5049076;28;20453;-80
2023/05/27 09:17:26;;;;;;;6.53;3.42;;;24.50;97.80;;;;;;5049194;28;20059;-80
2023/05/27 09:19:53;;;;;;;5.22;3.20;;;24.70;98.60;;;;;;5048939;28;20029;-80
2023/05/27 09:22:40;;;;;;;4.45;3.03;;;25.10;97.60;;;;;;5049175;28;20078;-80
2023/05/27 09:25:07;;;;;;;8.05;3.30;;;25.20;97.80;;;;;;5049355;28;20029;-81
2023/05/27 09:27:33;;;;;;;4.93;3.17;;;25.20;97.50;;;;;;5049098;28;20613;-80
2023/05/27 09:30:07;;;;;;;8.23;3.35;;;25.30;98.00;;;;;;5049172;28;20029;-81
2023/05/27 09:32:33;;;;;;;4.13;3.17;;;25.30;96.80;;;;;;5049021;28;20055;-80
2023/05/27 09:35:04;;;;;;;10.25;2.70;;;25.20;96.40;;;;;;5049078;28;20032;-81
2023/05/27 09:37:32;;;;;;;5.18;2.80;;;25.50;97.20;;;;;;5048975;28;20089;-80
2023/05/27 09:40:10;;;;;;;3.33;2.15;;;25.60;96.70;;;;;;5048700;28;20029;-80
2023/05/27 09:42:49;;;;;;;5.97;2.78;;;25.20;96.70;;;;;;5048690;28;20029;-81
2023/05/27 09:45:20;;;;;;;4.78;2.63;;;25.40;96.20;;;;;;5048671;28;20036;-81
2023/05/27 09:47:55;;;;;;;5.00;2.63;;;25.40;96.70;;;;;;5048856;28;20032;-80
2023/05/27 09:50:21;;;;;;;4.22;2.47;;;25.30;95.70;;;;;;5048831;28;20036;-80
2023/05/27 09:52:48;;;;;;;4.43;2.75;;;25.50;96.40;;;;;;5048463;28;20025;-81
2023/05/27 09:55:16;;;;;;;5.70;2.83;;;25.40;95.70;;;;;;5046694;28;20375;-80
2023/05/27 09:57:42;;;;;;;5.30;2.80;;;25.60;95.60;;;;;;5048200;28;20479;-80
2023/05/27 10:00:17;;;;;;;7.13;3.30;;;25.50;95.30;;;;;;5048527;28;20540;-80
2023/05/27 10:02:45;;;;;;;3.88;2.80;;;25.60;95.60;;;;;;5048116;28;20627;-81
2023/05/27 10:05:13;;;;;;;7.13;3.30;;;26.00;95.60;;;;;;5048564;28;20379;-81
2023/05/27 10:07:41;;;;;;;4.85;3.15;;;25.80;96.60;;;;;;5048804;28;20056;-81
2023/05/27 10:10:08;;;;;;;5.63;3.05;;;25.90;95.70;;;;;;5048564;28;20048;-81
2023/05/27 10:12:45;;;;;;;5.78;3.30;;;26.40;95.70;;;;;;5047772;28;20112;-81
2023/05/27 10:15:24;;;;;;;6.38;3.28;;;26.40;96.10;;;;;;5048503;28;20419;-81
2023/05/27 10:17:57;;;;;;;6.15;3.33;;;26.00;95.80;;;;;;5047963;28;20067;-81
2023/05/27 10:20:38;;;;;;;5.45;3.15;;;26.10;96.60;;;;;;5048073;28;20033;-80
2023/05/27 10:23:13;;;;;;;6.35;3.08;;;25.90;95.50;;;;;;5048499;28;20147;-81
2023/05/27 10:25:44;;;;;;;5.95;2.92;;;25.90;95.40;;;;;;5048208;28;20418;-81
2023/05/27 10:28:10;;;;;;;5.75;3.63;;;26.40;95.10;;;;;;5048300;28;20082;-81
2023/05/27 10:30:46;;;;;;;4.82;3.40;;;26.60;95.80;;;;;;5048249;28;20036;-81
2023/05/27 10:33:12;;;;;;;4.75;2.97;;;26.50;95.60;;;;;;5048397;28;20430;-81
2023/05/27 10:35:42;;;;;;;5.07;2.92;;;26.20;94.90;;;;;;5048302;28;20364;-81
2023/05/27 10:38:18;;;;;;;4.60;2.92;;;26.50;95.50;;;;;;5048336;28;20025;-81
2023/05/27 10:40:47;;;;;;;5.75;3.83;;;26.20;95.50;;;;;;5048546;28;20029;-80
2023/05/27 10:43:19;;;;;;;5.03;3.45;;;26.30;96.00;;;;;;5048222;28;20037;-80
2023/05/27 10:45:46;;;;;;;6.88;2.97;;;26.50;95.10;;;;;;5048252;28;20036;-80
2023/05/27 10:48:33;;;;;;;4.97;2.95;;;26.40;96.00;;;;;;5048414;28;20036;-81
2023/05/27 10:50:59;;;;;;;4.75;3.17;;;26.10;95.30;;;;;;5048350;28;20036;-81
2023/05/27 10:53:29;;;;;;;5.10;3.05;;;26.30;96.00;;;;;;5047870;28;20029;-81
2023/05/27 10:55:58;;;;;;;5.05;2.85;;;26.30;95.60;;;;;;5047779;28;20040;-81
2023/05/27 10:58:24;;;;;;;5.55;2.97;;;26.30;96.30;;;;;;5048248;28;20248;-81
2023/05/27 11:00:51;;;;;;;5.88;3.25;;;26.60;95.40;;;;;;5048326;28;20063;-81
2023/05/27 11:03:24;;;;;;;4.53;2.90;;;26.60;94.90;;;;;;5048215;28;20059;-81
2023/05/27 11:06:02;;;;;;;5.50;3.20;;;26.30;95.30;;;;;;5048356;28;20029;-81
2023/05/27 11:08:29;;;;;;;4.43;2.75;;;26.60;94.90;;;;;;5063723;28;20539;-81
2023/05/27 11:11:04;;;;;;;5.57;2.38;;;26.60;95.20;;;;;;5048279;28;20048;-81
2023/05/27 11:13:36;;;;;;;5.20;3.13;;;26.80;95.00;;;;;;5048089;28;20021;-81
2023/05/27 11:16:04;;;;;;;4.65;2.95;;;27.00;93.80;;;;;;5047974;28;20021;-81
2023/05/27 11:18:43;;;;;;;5.72;2.80;;;27.10;93.80;;;;;;5047765;28;20029;-81
2023/05/27 11:21:11;;;;;;;7.30;2.70;;;27.40;94.10;;;;;;5047719;28;20070;-81
2023/05/27 11:23:40;;;;;;;5.70;2.63;;;27.50;93.80;;;;;;5049918;28;20048;-81
2023/05/27 11:26:15;;;;;;;5.65;2.88;;;27.70;93.80;;;;;;5051321;28;20082;-81
2023/05/27 11:28:47;;;;;;;4.85;3.13;;;27.40;93.20;;;;;;5051685;28;20025;-81
2023/05/27 11:31:14;;;;;;;5.43;2.97;;;27.20;93.20;;;;;;5051555;28;20433;-80
2023/05/27 11:33:44;;;;;;;5.57;2.72;;;27.10;93.40;;;;;;5051224;28;20120;-81
2023/05/27 11:36:14;;;;;;;6.45;3.20;;;27.10;94.10;;;;;;5051645;28;20135;-81
2023/05/27 11:38:59;;;;;;;6.72;3.20;;;27.20;94.30;;;;;;5051405;28;20036;-81
2023/05/27 11:41:27;;;;;;;6.90;3.03;;;26.80;94.00;;;;;;5051355;28;20029;-81
2023/05/27 11:43:56;;;;;;;7.85;3.13;;;26.80;95.10;;;;;;5050996;28;20486;-81
2023/05/27 11:46:23;;;;;;;4.80;3.20;;;27.00;94.80;;;;;;5051336;28;20351;-81
2023/05/27 11:48:49;;;;;;;7.90;3.70;;;26.40;94.60;;;;;;5051198;28;20132;-81
2023/05/27 11:51:15;;;;;;;7.32;3.15;;;26.40;95.00;;;;;;5050977;28;20024;-81
2023/05/27 11:53:44;;;;;;;4.70;2.92;;;26.80;95.50;;;;;;5051041;28;20521;-81
2023/05/27 11:56:10;;;;;;;4.70;2.83;;;27.00;94.50;;;;;;5050824;28;20040;-81
2023/05/27 11:58:36;;;;;;;5.43;3.42;;;27.20;95.10;;;;;;5051262;28;20029;-80
2023/05/27 12:01:03;;;;;;;5.38;2.90;;;27.30;94.60;;;;;;5051096;28;20108;-81
2023/05/27 12:03:29;;;;;;;6.60;3.95;;;26.90;94.60;;;;;;5051054;28;20124;-81
2023/05/27 12:05:55;;;;;;;6.40;3.08;;;26.70;94.50;;;;;;5050712;28;20482;-81
2023/05/27 12:08:21;;;;;;;6.22;3.47;;;26.60;94.90;;;;;;5050647;28;20036;-81
2023/05/27 12:10:50;;;;;;;5.63;2.95;;;26.30;94.90;;;;;;5065652;28;20041;-80
2023/05/27 12:13:16;;;;;;;7.35;3.85;;;25.90;95.30;;;;;;5050431;28;20021;-81
2023/05/27 12:15:41;;;;;;;5.72;3.13;;;25.70;95.30;;;;;;5050529;28;20103;-81
2023/05/27 12:18:07;;;;;;;5.45;3.65;;;25.50;95.50;;;;;;5050562;28;20028;-81
2023/05/27 12:20:33;;;;;;;8.10;3.75;;;25.50;96.10;;;;;;5050185;28;20041;-81
2023/05/27 12:22:58;;;;;;;5.32;3.83;;;25.30;95.90;;;;;;5050146;28;20053;-81
2023/05/27 12:25:24;;;;;;;5.75;3.17;;;25.20;96.50;;;;;;5049840;28;20033;-80
2023/05/27 12:27:50;;;;;;;6.30;4.03;;;25.20;96.70;;;;;;5050131;28;20029;-81
2023/05/27 12:30:15;;;;;;;8.80;3.85;;;25.50;96.40;;;;;;5050258;28;20121;-80
2023/05/27 12:32:41;;;;;;;4.80;3.72;;;25.60;96.90;;;;;;5050428;28;20067;-80
2023/05/27 12:35:08;;;;;;;7.53;3.78;;;25.60;96.00;;;;;;5049598;28;20032;-81
2023/05/27 12:37:33;;;;;;;6.40;4.30;;;25.60;96.10;;;;;;5049673;28;20025;-81
2023/05/27 12:39:59;;;;;;;5.68;3.45;;;25.60;96.10;;;;;;5049855;28;20071;-80
2023/05/27 12:42:25;;;;;;;8.48;3.60;;;25.50;95.70;;;;;;5049977;28;20024;-80
2023/05/27 12:44:50;;;;;;;5.70;3.40;;;25.50;96.00;;;;;;5049543;28;20108;-81
2023/05/27 12:47:16;;;;;;;7.82;4.68;;;25.80;96.30;;;;;;5049879;28;20033;-81
2023/05/27 12:49:42;;;;;;;7.95;4.15;;;26.00;95.60;;;;;;5050208;28;20033;-81